Time;durP1;ratioP1;P1;durP2;ratioP2;P2;SDS_P1;SDS_P2;PMS_P1;PMS_P2;Temp;Humidity;BMP_temperature;BMP_pressure;BME280_temperature;BME280_humidity;BME280_pressure;Samples;Min_cycle;Max_cycle;Signal;HPM_P1;HPM_P2
2021/07/29 00:00:49;;;;;;;9.20;3.03;;;16.80;99.90;;;;;;12561656;28;20049;-85
2021/07/29 00:06:51;;;;;;;5.90;3.33;;;17.30;99.90;;;;;;12569319;28;20493;-85
2021/07/29 00:12:54;;;;;;;11.65;3.40;;;17.40;99.90;;;;;;12583824;28;20318;-85
2021/07/29 00:19:05;;;;;;;6.35;3.65;;;16.90;99.90;;;;;;12572988;28;20053;-84
2021/07/29 00:25:12;;;;;;;6.85;3.58;;;16.60;99.90;;;;;;12565833;28;20104;-84
2021/07/29 00:31:14;;;;;;;8.48;3.95;;;16.50;99.90;;;;;;12565792;28;20049;-85
2021/07/29 00:37:16;;;;;;;7.45;4.18;;;16.30;99.90;;;;;;12564123;28;20091;-84
2021/07/29 00:43:17;;;;;;;8.07;3.65;;;16.10;99.90;;;;;;12567388;28;20392;-84
2021/07/29 00:49:19;;;;;;;7.47;4.10;;;15.70;99.90;;;;;;12568757;28;20056;-84
2021/07/29 00:55:21;;;;;;;8.43;4.47;;;15.50;99.90;;;;;;12543401;28;20056;-84
2021/07/29 01:01:23;;;;;;;11.77;5.72;;;15.20;99.90;;;;;;12542154;28;20044;-84
2021/07/29 01:07:25;;;;;;;9.98;5.38;;;15.20;99.90;;;;;;12551563;28;20057;-85
2021/07/29 01:13:28;;;;;;;7.80;5.07;;;15.20;99.90;;;;;;12530839;28;20041;-83
2021/07/29 01:19:30;;;;;;;9.10;4.78;;;15.10;99.90;;;;;;12559763;28;20150;-84
2021/07/29 01:25:32;;;;;;;6.45;3.97;;;15.20;99.90;;;;;;12568798;28;20438;-84
2021/07/29 01:31:33;;;;;;;7.35;4.03;;;15.10;99.90;;;;;;12567614;28;20049;-85
2021/07/29 01:37:40;;;;;;;7.07;4.25;;;15.10;99.90;;;;;;12568569;28;21196;-83
2021/07/29 01:43:41;;;;;;;7.97;4.40;;;15.10;99.90;;;;;;12550717;28;20146;-85
2021/07/29 01:49:43;;;;;;;6.88;4.05;;;15.00;99.90;;;;;;12572993;28;20049;-84
2021/07/29 01:55:47;;;;;;;7.35;4.18;;;15.00;99.90;;;;;;12563146;28;20191;-84
2021/07/29 02:01:49;;;;;;;6.90;4.00;;;15.10;99.90;;;;;;12598652;28;20087;-85
2021/07/29 02:07:51;;;;;;;5.90;4.22;;;15.00;99.90;;;;;;12566791;28;20136;-84
2021/07/29 02:13:53;;;;;;;5.32;3.30;;;15.10;99.90;;;;;;12547204;28;20120;-85
2021/07/29 02:19:54;;;;;;;5.80;3.45;;;15.00;99.90;;;;;;12568401;28;20153;-84
2021/07/29 02:25:56;;;;;;;9.20;3.55;;;15.10;99.90;;;;;;12572673;28;20053;-85
2021/07/29 02:31:58;;;;;;;7.38;3.55;;;15.00;99.90;;;;;;12572221;28;20100;-85
2021/07/29 02:38:03;;;;;;;6.13;2.83;;;15.00;99.90;;;;;;12577716;28;20048;-84
2021/07/29 02:44:05;;;;;;;7.40;3.20;;;15.00;99.90;;;;;;12576263;28;20068;-86
2021/07/29 02:50:07;;;;;;;6.47;3.35;;;15.10;99.90;;;;;;12568833;28;20068;-84
2021/07/29 02:56:09;;;;;;;5.88;3.40;;;15.10;99.90;;;;;;12565652;28;20094;-85
2021/07/29 03:02:11;;;;;;;11.35;3.35;;;15.10;99.90;;;;;;12556868;28;20037;-85
2021/07/29 03:08:13;;;;;;;6.70;3.40;;;15.20;99.90;;;;;;12559775;28;20084;-84
2021/07/29 03:14:16;;;;;;;7.65;3.28;;;15.20;99.90;;;;;;12556741;28;20175;-85
2021/07/29 03:20:19;;;;;;;6.47;3.30;;;15.40;99.90;;;;;;12558912;28;20052;-85
2021/07/29 03:26:21;;;;;;;8.13;3.20;;;15.30;99.90;;;;;;12563537;28;20526;-84
2021/07/29 03:32:23;;;;;;;7.50;3.40;;;15.30;99.90;;;;;;12567409;28;20130;-84
2021/07/29 03:38:25;;;;;;;7.32;3.38;;;15.20;99.90;;;;;;12570089;28;20048;-84
2021/07/29 03:44:27;;;;;;;6.30;3.25;;;15.20;99.90;;;;;;12560390;28;20045;-84
2021/07/29 03:50:30;;;;;;;5.35;3.15;;;15.20;99.90;;;;;;12570085;28;20045;-84
2021/07/29 03:56:32;;;;;;;5.70;3.40;;;15.20;99.90;;;;;;12571348;28;20075;-84
2021/07/29 04:02:34;;;;;;;5.95;3.10;;;15.20;99.90;;;;;;12551931;28;20072;-83
2021/07/29 04:08:37;;;;;;;7.25;3.03;;;15.20;99.90;;;;;;12568286;28;20052;-84
2021/07/29 04:14:40;;;;;;;6.75;3.08;;;15.20;99.90;;;;;;12568996;28;20123;-85
2021/07/29 04:20:43;;;;;;;6.07;2.85;;;15.20;99.90;;;;;;12562215;28;20063;-85
2021/07/29 04:26:48;;;;;;;6.82;2.95;;;15.20;99.90;;;;;;12559758;28;20095;-85
2021/07/29 04:32:50;;;;;;;7.35;3.65;;;15.20;99.90;;;;;;12568667;28;20056;-85
2021/07/29 04:38:51;;;;;;;6.72;3.00;;;15.20;99.90;;;;;;12571814;28;20222;-84
2021/07/29 04:44:53;;;;;;;5.53;2.95;;;15.20;99.90;;;;;;12571362;28;20071;-84
2021/07/29 04:51:03;;;;;;;7.32;3.05;;;15.20;99.90;;;;;;12569887;28;20041;-86
2021/07/29 04:57:04;;;;;;;7.85;3.22;;;15.20;99.90;;;;;;12560606;28;20049;-85
2021/07/29 05:03:06;;;;;;;7.22;2.60;;;15.20;99.90;;;;;;12557900;28;20152;-85
2021/07/29 05:09:09;;;;;;;6.65;2.47;;;15.10;99.90;;;;;;12571215;28;20060;-84
2021/07/29 05:15:11;;;;;;;5.38;2.40;;;15.20;99.90;;;;;;12550373;28;21163;-85
2021/07/29 05:21:13;;;;;;;5.38;2.72;;;15.20;99.90;;;;;;12575019;28;20070;-84
2021/07/29 05:27:15;;;;;;;9.15;3.25;;;15.20;99.90;;;;;;12565356;28;20461;-83
2021/07/29 05:33:17;;;;;;;5.75;2.72;;;15.40;99.90;;;;;;12583491;28;20033;-85
2021/07/29 05:39:19;;;;;;;5.97;2.45;;;15.40;99.90;;;;;;12572592;28;20053;-85
2021/07/29 05:45:22;;;;;;;6.10;2.30;;;15.40;99.90;;;;;;12586297;28;20087;-85
2021/07/29 05:51:24;;;;;;;10.75;2.88;;;15.40;99.90;;;;;;12578067;28;20037;-85
2021/07/29 05:57:25;;;;;;;8.50;2.72;;;15.60;99.90;;;;;;12559895;28;20080;-85
2021/07/29 06:03:27;;;;;;;9.90;2.58;;;15.60;99.90;;;;;;12563877;28;20160;-85
2021/07/29 06:09:29;;;;;;;8.63;2.47;;;15.70;99.90;;;;;;12562624;28;20114;-85
2021/07/29 06:15:31;;;;;;;6.53;2.33;;;15.70;99.90;;;;;;12569857;28;20466;-84
2021/07/29 06:21:34;;;;;;;8.00;2.30;;;15.80;99.90;;;;;;12564366;28;20050;-86
2021/07/29 06:27:37;;;;;;;8.23;2.50;;;15.90;99.90;;;;;;12559663;28;20044;-85
2021/07/29 06:33:39;;;;;;;8.38;2.83;;;16.00;99.90;;;;;;12557439;28;20071;-84
2021/07/29 06:39:41;;;;;;;6.80;2.55;;;16.00;99.90;;;;;;12578505;28;20049;-85
2021/07/29 06:45:43;;;;;;;8.82;3.08;;;16.00;99.90;;;;;;12554805;28;20053;-85
2021/07/29 06:51:44;;;;;;;10.65;2.95;;;16.00;99.90;;;;;;12561887;28;20052;-85
2021/07/29 06:57:46;;;;;;;6.53;3.17;;;16.20;99.90;;;;;;12568416;28;20049;-83
2021/07/29 07:03:48;;;;;;;7.45;3.30;;;16.20;99.90;;;;;;12553838;28;20157;-86
2021/07/29 07:09:50;;;;;;;6.70;3.28;;;16.20;99.90;;;;;;12558188;28;20087;-85
2021/07/29 07:15:53;;;;;;;7.80;2.97;;;16.30;99.90;;;;;;12554020;28;20098;-84
2021/07/29 07:21:55;;;;;;;5.25;2.53;;;16.40;99.90;;;;;;12563662;28;20044;-84
2021/07/29 07:27:57;;;;;;;6.85;3.15;;;16.20;99.90;;;;;;12546908;28;20737;-84
2021/07/29 07:34:00;;;;;;;5.80;3.05;;;16.40;99.90;;;;;;12560529;28;20071;-86
2021/07/29 07:40:03;;;;;;;8.67;3.00;;;16.50;99.90;;;;;;12559746;28;20061;-84
2021/07/29 07:46:05;;;;;;;7.88;2.95;;;16.40;99.90;;;;;;12554244;28;20103;-86
2021/07/29 07:52:09;;;;;;;5.20;2.83;;;16.70;99.90;;;;;;12544812;28;20045;-84
2021/07/29 07:58:10;;;;;;;7.00;2.67;;;17.00;99.90;;;;;;12551295;28;20057;-85
2021/07/29 08:04:12;;;;;;;11.35;3.25;;;17.20;99.90;;;;;;12562128;28;20041;-86
2021/07/29 08:10:14;;;;;;;14.27;3.38;;;17.30;99.90;;;;;;12553835;28;20095;-84
2021/07/29 08:16:16;;;;;;;7.82;2.60;;;17.10;99.90;;;;;;12547104;28;20512;-86
2021/07/29 08:22:17;;;;;;;9.95;2.45;;;17.60;99.90;;;;;;12540447;28;20549;-85
2021/07/29 08:28:19;;;;;;;7.40;2.10;;;17.70;99.90;;;;;;12545870;28;20761;-83
2021/07/29 08:34:21;;;;;;;6.45;2.20;;;17.90;99.90;;;;;;12542475;28;20400;-84
2021/07/29 08:40:23;;;;;;;7.45;2.20;;;18.00;99.90;;;;;;12545319;28;20102;-86
2021/07/29 08:46:25;;;;;;;6.05;2.20;;;18.40;99.90;;;;;;12555705;28;20064;-84
2021/07/29 08:52:27;;;;;;;6.72;1.88;;;18.60;99.90;;;;;;12550570;28;20532;-84
2021/07/29 08:58:28;;;;;;;7.05;2.00;;;18.90;99.90;;;;;;12552644;28;20099;-84
2021/07/29 09:04:30;;;;;;;8.00;2.28;;;18.70;99.90;;;;;;12552551;28;20045;-86
2021/07/29 09:10:32;;;;;;;5.53;2.20;;;18.80;99.90;;;;;;12546746;28;20065;-85
2021/07/29 09:16:51;;;;;;;8.43;1.92;;;18.90;99.90;;;;;;12555404;28;20056;-84
2021/07/29 09:22:53;;;;;;;6.57;1.95;;;18.70;99.90;;;;;;12576113;28;20045;-83
2021/07/29 09:28:55;;;;;;;6.07;1.70;;;18.50;99.90;;;;;;12540994;28;20052;-86
2021/07/29 09:34:57;;;;;;;13.75;1.88;;;18.10;99.90;;;;;;12554754;28;20077;-85
2021/07/29 09:41:03;;;;;;;10.32;2.22;;;18.50;99.90;;;;;;12560467;28;20104;-85
2021/07/29 09:47:05;;;;;;;6.38;2.00;;;19.10;99.90;;;;;;12551763;28;20041;-86
2021/07/29 09:53:08;;;;;;;3.88;1.63;;;18.90;99.90;;;;;;12552324;28;20625;-85
2021/07/29 09:59:10;;;;;;;7.20;1.70;;;18.90;99.90;;;;;;12546670;28;20168;-87
2021/07/29 10:05:15;;;;;;;6.70;1.60;;;18.50;99.90;;;;;;12530055;28;20640;-85
2021/07/29 10:11:20;;;;;;;5.75;1.77;;;18.40;99.90;;;;;;12551371;28;20688;-85
2021/07/29 10:17:34;;;;;;;3.20;1.42;;;18.20;99.90;;;;;;12561751;28;20119;-85
2021/07/29 10:23:36;;;;;;;4.78;1.80;;;18.80;99.90;;;;;;12554930;28;20036;-85
2021/07/29 10:29:38;;;;;;;6.30;1.77;;;19.50;99.90;;;;;;12555510;28;20109;-84
2021/07/29 10:35:41;;;;;;;5.70;1.48;;;19.80;99.90;;;;;;12546700;28;20140;-84
2021/07/29 10:41:45;;;;;;;12.88;1.83;;;19.70;99.90;;;;;;12551507;28;20681;-85
2021/07/29 10:47:47;;;;;;;8.57;1.58;;;20.10;99.90;;;;;;12555494;28;20044;-86
2021/07/29 10:53:51;;;;;;;8.43;1.85;;;20.30;99.90;;;;;;12555482;28;20090;-86
2021/07/29 10:59:53;;;;;;;6.18;1.67;;;20.50;99.90;;;;;;12567927;28;20542;-86
2021/07/29 11:06:05;;;;;;;6.82;1.63;;;19.90;99.90;;;;;;12565271;28;20060;-86
2021/07/29 11:12:12;;;;;;;6.13;1.65;;;19.50;99.90;;;;;;12533023;28;20669;-86
2021/07/29 11:18:17;;;;;;;5.57;1.80;;;19.20;99.90;;;;;;12541531;28;20049;-87
2021/07/29 11:24:24;;;;;;;6.53;1.92;;;19.20;99.90;;;;;;12535525;28;20053;-85
2021/07/29 11:30:40;;;;;;;4.53;1.73;;;19.30;99.90;;;;;;12550921;28;20090;-88
2021/07/29 11:36:52;;;;;;;8.32;2.03;;;19.90;99.90;;;;;;12536884;28;20178;-87
2021/07/29 11:42:55;;;;;;;9.45;1.70;;;19.70;99.90;;;;;;12557791;28;20129;-86
2021/07/29 11:49:05;;;;;;;5.43;1.90;;;20.00;99.90;;;;;;12542087;28;20040;-82
2021/07/29 11:55:14;;;;;;;5.70;2.00;;;20.50;99.90;;;;;;12539531;28;20075;-84
2021/07/29 12:01:17;;;;;;;7.32;1.70;;;20.60;99.90;;;;;;12535119;28;20079;-85
2021/07/29 12:07:19;;;;;;;6.32;1.98;;;20.90;99.90;;;;;;12548491;28;20506;-85
2021/07/29 12:13:23;;;;;;;6.97;2.00;;;21.00;99.90;;;;;;12542637;28;20140;-85
2021/07/29 12:19:25;;;;;;;8.60;1.95;;;20.30;99.90;;;;;;12553281;28;20056;-86
2021/07/29 12:25:31;;;;;;;4.43;1.92;;;19.80;99.90;;;;;;12556144;28;20233;-87
2021/07/29 12:31:33;;;;;;;7.10;1.90;;;19.40;99.90;;;;;;12553910;28;20102;-85
2021/07/29 12:37:37;;;;;;;6.97;1.77;;;19.60;99.90;;;;;;12557811;28;20479;-86
2021/07/29 12:43:39;;;;;;;8.02;2.20;;;20.70;99.90;;;;;;12554541;28;20465;-85
2021/07/29 12:49:40;;;;;;;6.13;1.90;;;20.90;99.90;;;;;;12545181;28;20084;-85
2021/07/29 12:55:44;;;;;;;9.13;1.67;;;21.40;99.90;;;;;;12584730;28;20072;-85
2021/07/29 13:01:48;;;;;;;8.73;2.03;;;22.00;99.90;;;;;;12536717;28;20087;-84
2021/07/29 13:07:52;;;;;;;4.80;1.50;;;21.30;99.90;;;;;;12523466;28;20052;-85
2021/07/29 13:13:55;;;;;;;5.18;1.42;;;21.40;99.90;;;;;;12535269;28;20159;-85
2021/07/29 13:20:00;;;;;;;8.43;1.60;;;21.60;99.90;;;;;;12532693;28;20069;-85
2021/07/29 13:26:03;;;;;;;4.60;1.40;;;21.90;99.90;;;;;;12523847;28;20041;-86
2021/07/29 13:32:05;;;;;;;6.85;1.50;;;22.10;99.90;;;;;;12533346;28;20461;-85
2021/07/29 13:38:07;;;;;;;5.43;1.27;;;21.40;99.90;;;;;;12539460;28;20076;-85
2021/07/29 13:44:10;;;;;;;5.90;1.60;;;20.60;99.90;;;;;;12548282;28;20765;-85
2021/07/29 13:50:14;;;;;;;5.83;1.90;;;21.00;99.90;;;;;;12549799;28;20055;-85
2021/07/29 13:56:16;;;;;;;4.97;1.80;;;20.70;99.90;;;;;;12547752;28;20392;-86
2021/07/29 14:02:19;;;;;;;8.10;1.75;;;20.50;99.90;;;;;;12548249;28;20454;-84
2021/07/29 14:08:21;;;;;;;9.23;1.73;;;20.10;99.90;;;;;;12549553;28;20045;-86
2021/07/29 14:14:23;;;;;;;7.10;1.95;;;20.00;99.90;;;;;;12547922;28;20045;-85
2021/07/29 14:20:32;;;;;;;8.48;2.28;;;20.00;99.90;;;;;;12551794;28;20048;-86
2021/07/29 14:26:34;;;;;;;6.72;1.50;;;20.30;99.90;;;;;;12555488;28;20124;-84
2021/07/29 14:32:36;;;;;;;9.05;1.63;;;20.30;99.90;;;;;;12552653;28;20390;-85
2021/07/29 14:38:38;;;;;;;5.70;1.58;;;20.10;99.90;;;;;;12542464;28;20044;-85
2021/07/29 14:44:49;;;;;;;8.75;1.67;;;20.00;99.90;;;;;;12551027;28;20373;-85
2021/07/29 14:50:51;;;;;;;6.85;1.52;;;19.60;99.90;;;;;;12549070;28;20173;-84
2021/07/29 14:56:54;;;;;;;5.15;1.98;;;19.50;99.90;;;;;;12544798;28;20056;-85
2021/07/29 16:12:44;;;;;;;7.18;1.67;;;22.00;99.90;;;;;;12543789;28;20514;-85
2021/07/29 16:18:46;;;;;;;7.53;1.92;;;22.10;99.90;;;;;;12542726;28;20049;-87
2021/07/29 16:24:49;;;;;;;5.90;1.67;;;22.20;99.90;;;;;;12546878;28;20032;-85
2021/07/29 16:30:51;;;;;;;5.90;1.73;;;22.20;99.90;;;;;;12572719;28;20132;-87
2021/07/29 16:37:12;;;;;;;8.68;2.03;;;21.90;99.90;;;;;;12543012;28;20772;-85
2021/07/29 16:43:14;;;;;;;6.28;1.58;;;21.90;99.90;;;;;;12533585;28;20046;-86
2021/07/29 16:49:16;;;;;;;6.97;1.92;;;22.00;99.90;;;;;;12543571;28;20681;-85
2021/07/29 16:55:18;;;;;;;5.40;2.03;;;21.80;99.90;;;;;;12539279;28;20527;-86
2021/07/29 17:01:20;;;;;;;6.13;1.80;;;22.00;99.90;;;;;;12536337;28;20421;-83
2021/07/29 17:07:22;;;;;;;5.55;1.63;;;22.40;99.90;;;;;;12531710;28;20551;-85
2021/07/29 17:13:24;;;;;;;7.75;1.85;;;22.50;99.90;;;;;;12538885;28;20100;-85
2021/07/29 17:19:28;;;;;;;7.70;1.80;;;22.20;99.90;;;;;;12528667;28;20140;-85
2021/07/29 17:25:30;;;;;;;6.20;2.05;;;22.40;99.90;;;;;;12532611;28;20137;-86
2021/07/29 17:31:32;;;;;;;5.75;1.75;;;22.70;99.90;;;;;;12533876;28;20045;-86
2021/07/29 17:37:35;;;;;;;6.45;2.75;;;22.70;99.90;;;;;;12532924;28;20087;-86
2021/07/29 17:43:37;;;;;;;6.40;2.00;;;22.20;99.90;;;;;;12529914;28;20053;-86
2021/07/29 17:49:39;;;;;;;6.93;1.63;;;22.60;99.90;;;;;;12538135;28;20295;-86
2021/07/29 17:55:41;;;;;;;5.40;1.88;;;22.90;99.90;;;;;;12529863;28;20045;-85
2021/07/29 18:01:43;;;;;;;6.75;1.77;;;22.80;99.90;;;;;;12527099;28;20701;-86
2021/07/29 18:07:45;;;;;;;5.78;2.00;;;22.10;99.90;;;;;;12532625;28;20059;-86
2021/07/29 18:13:47;;;;;;;4.93;1.88;;;22.20;99.90;;;;;;12529662;28;20049;-86
2021/07/29 18:19:52;;;;;;;4.68;1.80;;;21.90;99.90;;;;;;12527662;28;20072;-86
2021/07/29 18:25:54;;;;;;;5.80;1.65;;;21.20;99.90;;;;;;12525021;28;20576;-85
2021/07/29 18:31:55;;;;;;;4.60;1.80;;;20.70;99.90;;;;;;12536738;28;20676;-85
2021/07/29 18:37:58;;;;;;;7.05;1.80;;;20.40;99.90;;;;;;12542238;28;20447;-86
2021/07/29 18:43:59;;;;;;;8.57;1.85;;;19.80;99.90;;;;;;12532330;28;20041;-85
2021/07/29 18:50:01;;;;;;;5.47;1.90;;;19.50;99.90;;;;;;12520781;28;20459;-85
2021/07/29 18:56:04;;;;;;;7.07;1.65;;;19.30;99.90;;;;;;12550074;28;20049;-85
2021/07/29 19:02:06;;;;;;;5.28;1.63;;;19.30;99.90;;;;;;12536497;28;20056;-85
2021/07/29 19:08:08;;;;;;;6.40;1.90;;;19.10;99.90;;;;;;12543323;28;20071;-86
2021/07/29 19:14:10;;;;;;;5.38;1.60;;;18.80;99.90;;;;;;12537280;28;20102;-85
2021/07/29 19:20:13;;;;;;;5.60;1.80;;;18.90;99.90;;;;;;12542527;28;20057;-85
2021/07/29 19:26:14;;;;;;;5.90;1.75;;;18.70;99.90;;;;;;12541545;28;20084;-85
2021/07/29 19:32:16;;;;;;;6.57;1.73;;;18.50;99.90;;;;;;12534689;28;20459;-85
2021/07/29 19:38:18;;;;;;;5.30;1.67;;;18.50;99.90;;;;;;12542460;28;20052;-86
2021/07/29 19:44:20;;;;;;;6.63;1.65;;;18.30;99.90;;;;;;12535918;28;20045;-85
2021/07/29 19:50:22;;;;;;;7.32;1.70;;;18.30;99.90;;;;;;12539795;28;20385;-85
2021/07/29 19:56:24;;;;;;;5.30;1.30;;;18.20;99.90;;;;;;12577120;28;20025;-85
2021/07/29 20:02:26;;;;;;;4.60;1.60;;;18.20;99.90;;;;;;12547095;28;20049;-84
2021/07/29 20:08:28;;;;;;;4.32;1.60;;;18.10;99.90;;;;;;12534206;28;20049;-85
2021/07/29 20:14:30;;;;;;;6.43;1.75;;;18.20;99.90;;;;;;12535803;28;20137;-85
2021/07/29 20:20:33;;;;;;;6.03;1.70;;;18.10;99.90;;;;;;12533709;28;20045;-85
2021/07/29 20:26:36;;;;;;;8.82;2.00;;;18.00;99.90;;;;;;12529858;28;20467;-85
2021/07/29 20:32:38;;;;;;;4.68;1.98;;;18.00;99.90;;;;;;12530523;28;20102;-85
2021/07/29 20:38:40;;;;;;;4.93;1.63;;;18.00;99.90;;;;;;12527235;28;20045;-85
2021/07/29 20:44:47;;;;;;;7.78;2.13;;;17.90;99.90;;;;;;12535301;28;20050;-85
2021/07/29 20:50:49;;;;;;;7.45;1.90;;;17.70;99.90;;;;;;12528065;28;20469;-85
2021/07/29 20:56:51;;;;;;;7.13;2.10;;;17.80;99.90;;;;;;12523186;28;20068;-85
2021/07/29 21:02:53;;;;;;;8.00;2.17;;;17.70;99.90;;;;;;12532432;28;20070;-85
2021/07/29 21:08:55;;;;;;;6.90;1.83;;;17.60;99.90;;;;;;12527253;28;20405;-85
2021/07/29 21:14:56;;;;;;;7.45;1.90;;;17.60;99.90;;;;;;12528888;28;20106;-85
2021/07/29 21:20:58;;;;;;;6.97;2.25;;;17.60;99.90;;;;;;12532586;28;20049;-85
2021/07/29 21:27:04;;;;;;;8.60;2.30;;;17.60;99.90;;;;;;12535968;28;20049;-85
2021/07/29 21:33:06;;;;;;;11.95;2.30;;;17.50;99.90;;;;;;12534077;28;20106;-85
2021/07/29 21:39:08;;;;;;;8.07;2.22;;;17.40;99.90;;;;;;12531758;28;20166;-85
2021/07/29 21:45:11;;;;;;;8.32;2.00;;;17.40;99.90;;;;;;12527475;28;20091;-85
2021/07/29 21:51:13;;;;;;;5.37;2.37;;;17.20;99.90;;;;;;12539368;28;20044;-85
2021/07/29 21:57:15;;;;;;;5.75;1.90;;;17.20;99.90;;;;;;12539863;28;20071;-85
2021/07/29 22:03:20;;;;;;;7.28;2.03;;;17.10;99.90;;;;;;12546385;28;20041;-84
2021/07/29 22:09:22;;;;;;;7.20;2.03;;;17.10;99.90;;;;;;12549405;28;20056;-85
2021/07/29 22:15:24;;;;;;;8.50;2.25;;;17.20;99.90;;;;;;12541175;28;20497;-85
2021/07/29 22:21:26;;;;;;;8.95;2.53;;;17.10;99.90;;;;;;12547305;28;20049;-85
2021/07/29 22:27:28;;;;;;;9.32;2.83;;;17.10;99.90;;;;;;12549337;28;20050;-83
2021/07/29 22:33:29;;;;;;;5.45;2.00;;;17.10;99.90;;;;;;12547585;28;20053;-85
2021/07/29 22:39:33;;;;;;;11.13;2.60;;;17.00;99.90;;;;;;12547322;28;20053;-85
2021/07/29 22:45:35;;;;;;;6.60;1.98;;;16.90;99.90;;;;;;12541238;28;20502;-84
2021/07/29 22:51:36;;;;;;;8.00;2.53;;;16.80;99.90;;;;;;12540845;28;20131;-85
2021/07/29 22:57:38;;;;;;;6.55;2.30;;;16.70;99.90;;;;;;12539956;28;20053;-85
2021/07/29 23:03:40;;;;;;;8.00;2.20;;;16.60;99.90;;;;;;12536622;28;20052;-85
2021/07/29 23:09:42;;;;;;;10.60;2.40;;;16.50;99.90;;;;;;12541963;28;20049;-85
2021/07/29 23:15:44;;;;;;;7.00;2.20;;;16.40;99.90;;;;;;12547202;28;20041;-84
2021/07/29 23:21:46;;;;;;;6.90;2.20;;;16.40;99.90;;;;;;12543536;28;20839;-84
2021/07/29 23:34:09;;;;;;;7.28;2.65;;;16.20;99.90;;;;;;12563383;28;20446;-84
2021/07/29 23:40:12;;;;;;;7.18;2.45;;;16.10;99.90;;;;;;12539144;28;20094;-85
2021/07/29 23:46:14;;;;;;;8.07;2.20;;;16.00;99.90;;;;;;12535406;28;20049;-85
2021/07/29 23:52:16;;;;;;;13.98;3.55;;;16.00;99.90;;;;;;12534844;28;20085;-83
2021/07/29 23:58:18;;;;;;;9.43;2.58;;;15.90;99.90;;;;;;12533283;28;20045;-84
